Time;durP1;ratioP1;P1;durP2;ratioP2;P2;SDS_P1;SDS_P2;PMS_P1;PMS_P2;Temp;Humidity;BMP_temperature;BMP_pressure;BME280_temperature;BME280_humidity;BME280_pressure;Samples;Min_cycle;Max_cycle;Signal;HPM_P1;HPM_P2
2021/01/07 00:00:12;;;;;;;9.60;7.63;;;;;;;1.95;100.00;97907.13;5118086;28;20256;-65
2021/01/07 00:02:38;;;;;;;9.73;8.23;;;;;;;1.98;100.00;97903.53;5117881;28;20206;-65
2021/01/07 00:05:06;;;;;;;9.20;7.60;;;;;;;1.97;100.00;97907.91;5117444;28;20206;-67
2021/01/07 00:07:32;;;;;;;10.67;8.17;;;;;;;1.96;100.00;97911.41;5115374;28;20245;-70
2021/01/07 00:09:59;;;;;;;10.60;8.27;;;;;;;1.92;100.00;97904.66;5117238;28;20240;-71
2021/01/07 00:12:25;;;;;;;10.57;7.73;;;;;;;1.91;100.00;97902.91;5117356;28;20211;-72
2021/01/07 00:14:51;;;;;;;10.70;8.10;;;;;;;1.91;100.00;97908.13;5117174;28;20213;-72
2021/01/07 00:17:17;;;;;;;8.60;6.70;;;;;;;1.92;100.00;97909.84;5117270;28;20655;-72
2021/01/07 00:19:43;;;;;;;9.57;7.60;;;;;;;1.95;100.00;97907.13;5117156;28;20240;-72
2021/01/07 00:22:08;;;;;;;11.30;8.27;;;;;;;1.97;100.00;97910.50;5117147;28;20205;-67
2021/01/07 00:24:34;;;;;;;10.07;7.50;;;;;;;1.97;100.00;97910.50;5116734;28;20218;-66
2021/01/07 00:27:01;;;;;;;8.80;7.40;;;;;;;1.98;100.00;97899.19;5116856;28;20321;-66
2021/01/07 00:29:27;;;;;;;10.30;7.80;;;;;;;1.99;100.00;97906.09;5116751;28;20675;-66
2021/01/07 00:31:53;;;;;;;10.33;8.13;;;;;;;2.00;100.00;97907.78;5116622;28;20240;-68
2021/01/07 00:34:21;;;;;;;10.70;8.13;;;;;;;1.99;100.00;97906.09;5115037;28;20747;-68
2021/01/07 00:36:52;;;;;;;10.77;7.97;;;;;;;1.96;100.00;97902.75;5116853;28;20218;-68
2021/01/07 00:39:18;;;;;;;9.97;8.13;;;;;;;1.98;100.00;97904.41;5116823;27;20226;-69
2021/01/07 00:41:44;;;;;;;10.37;7.70;;;;;;;1.96;100.00;97906.19;5116457;28;20330;-69
2021/01/07 00:44:11;;;;;;;11.37;8.43;;;;;;;1.95;100.00;97899.31;5116566;28;20202;-66
2021/01/07 00:46:37;;;;;;;10.97;7.83;;;;;;;1.99;100.00;97900.88;5116218;28;20693;-66
2021/01/07 00:49:03;;;;;;;11.73;8.87;;;;;;;1.95;100.00;97904.50;5116579;28;20213;-66
2021/01/07 00:51:32;;;;;;;10.57;8.20;;;;;;;1.91;100.00;97905.53;5116617;28;20239;-66
2021/01/07 00:53:58;;;;;;;11.87;8.53;;;;;;;1.82;100.00;97907.63;5116617;28;20602;-66
2021/01/07 00:56:24;;;;;;;10.23;8.10;;;;;;;1.88;100.00;97903.06;5116152;28;20218;-68
2021/01/07 00:58:50;;;;;;;11.47;8.37;;;;;;;1.87;100.00;97901.38;5116021;28;20238;-67
2021/01/07 01:01:17;;;;;;;9.43;7.33;;;;;;;1.88;100.00;97908.25;5115267;28;20689;-66
2021/01/07 01:03:43;;;;;;;11.13;8.67;;;;;;;1.88;100.00;97899.59;5116248;28;20717;-67
2021/01/07 01:06:09;;;;;;;10.00;8.03;;;;;;;1.89;100.00;97909.97;5116234;28;20244;-67
2021/01/07 01:08:35;;;;;;;11.73;8.00;;;;;;;1.92;100.00;97907.25;5116037;28;20668;-67
2021/01/07 01:11:01;;;;;;;10.37;7.77;;;;;;;1.90;100.00;97908.22;5116264;28;20299;-65
2021/01/07 01:13:27;;;;;;;13.30;9.43;;;;;;;1.91;100.00;97904.69;5116221;28;20210;-66
2021/01/07 01:15:54;;;;;;;11.70;8.77;;;;;;;1.86;100.00;97907.50;5116059;28;20272;-67
2021/01/07 01:18:21;;;;;;;12.33;8.70;;;;;;;1.90;100.00;97911.66;5115939;28;20206;-67
2021/01/07 01:20:47;;;;;;;12.53;9.00;;;;;;;1.83;100.00;97906.75;5116059;28;20221;-67
2021/01/07 01:23:13;;;;;;;11.67;8.47;;;;;;;1.87;100.00;97906.56;5115859;28;20252;-69
2021/01/07 01:25:39;;;;;;;12.03;8.70;;;;;;;1.87;100.00;97910.91;5113898;28;20262;-68
2021/01/07 01:28:05;;;;;;;12.70;9.10;;;;;;;1.88;100.00;97904.81;5115702;28;20229;-67
2021/01/07 01:30:30;;;;;;;11.60;8.20;;;;;;;1.86;100.00;97915.31;5115980;28;20203;-67
2021/01/07 01:32:56;;;;;;;11.27;8.37;;;;;;;1.86;100.00;97920.50;5115587;28;20223;-66
2021/01/07 01:35:23;;;;;;;12.83;9.37;;;;;;;1.81;100.00;97918.97;5115662;28;20206;-67
2021/01/07 01:37:49;;;;;;;10.07;8.07;;;;;;;1.84;100.00;97911.88;5115771;28;20217;-67
2021/01/07 01:40:16;;;;;;;11.00;8.17;;;;;;;1.88;100.00;97913.47;5114435;28;20213;-67
2021/01/07 01:42:42;;;;;;;12.13;9.33;;;;;;;1.89;100.00;97909.13;5115359;28;20214;-67
2021/01/07 01:45:08;;;;;;;11.47;8.23;;;;;;;1.87;100.00;97918.75;5115515;28;20206;-67
2021/01/07 01:47:34;;;;;;;10.37;8.17;;;;;;;1.85;100.00;97913.56;5115213;28;20284;-68
2021/01/07 01:50:01;;;;;;;10.43;8.30;;;;;;;1.85;100.00;97910.16;5115574;28;20205;-68
2021/01/07 01:52:30;;;;;;;10.03;8.40;;;;;;;1.83;100.00;97918.00;5113732;28;20210;-70
2021/01/07 01:54:56;;;;;;;11.43;8.33;;;;;;;1.85;100.00;97917.97;5115215;28;20206;-70
2021/01/07 01:57:23;;;;;;;11.17;8.47;;;;;;;1.88;100.00;97920.44;5115264;28;20251;-69
2021/01/07 01:59:49;;;;;;;10.40;7.97;;;;;;;1.91;100.00;97913.34;5115250;28;20229;-69
2021/01/07 02:02:17;;;;;;;10.27;8.23;;;;;;;1.91;100.00;97918.56;5115419;28;20609;-69
2021/01/07 02:04:44;;;;;;;12.77;9.10;;;;;;;1.89;100.00;97909.97;5114245;28;20213;-69
2021/01/07 02:07:12;;;;;;;12.30;8.87;;;;;;;1.91;100.00;97913.34;5115089;28;20238;-69
2021/01/07 02:09:42;;;;;;;13.10;8.50;;;;;;;1.89;100.00;97915.16;5114963;28;20210;-70
2021/01/07 02:12:09;;;;;;;11.27;8.17;;;;;;;1.92;100.00;97904.66;5115081;28;20210;-70
2021/01/07 02:14:38;;;;;;;10.97;7.83;;;;;;;1.94;100.00;97917.59;5115139;28;20205;-69
2021/01/07 02:17:04;;;;;;;12.30;8.63;;;;;;;1.92;100.00;97907.25;5113840;28;20218;-70
2021/01/07 02:19:30;;;;;;;11.43;8.23;;;;;;;1.90;100.00;97916.88;5114222;28;20685;-68
2021/01/07 02:21:57;;;;;;;11.70;8.63;;;;;;;1.90;100.00;97914.25;5114733;28;20301;-68
2021/01/07 02:24:25;;;;;;;11.80;8.30;;;;;;;1.91;100.00;97923.78;5114558;28;20206;-68
2021/01/07 02:26:52;;;;;;;11.73;8.47;;;;;;;1.89;100.00;97923.00;5114471;28;20230;-68
2021/01/07 02:29:18;;;;;;;12.33;8.90;;;;;;;1.85;100.00;97913.56;5114636;28;20213;-68
2021/01/07 02:31:44;;;;;;;12.00;8.50;;;;;;;1.85;100.00;97920.56;5114237;28;20319;-66
2021/01/07 02:34:10;;;;;;;12.13;8.83;;;;;;;1.87;100.00;97917.00;5114602;28;20213;-65
2021/01/07 02:36:36;;;;;;;11.40;8.47;;;;;;;1.86;100.00;97909.22;5114636;28;20692;-70
2021/01/07 02:39:03;;;;;;;13.23;9.43;;;;;;;1.87;100.00;97911.78;5114404;28;20300;-71
2021/01/07 02:41:29;;;;;;;12.30;8.80;;;;;;;1.90;100.00;97913.44;5114318;28;20262;-71
2021/01/07 02:43:55;;;;;;;12.03;8.53;;;;;;;1.98;100.00;97917.44;5112362;28;20202;-66
2021/01/07 02:46:21;;;;;;;11.90;8.70;;;;;;;1.92;100.00;97909.84;5114054;28;20275;-67
2021/01/07 02:48:47;;;;;;;10.17;7.67;;;;;;;1.90;100.00;97919.47;5115245;28;20297;-71
2021/01/07 02:51:13;;;;;;;12.13;9.07;;;;;;;1.90;100.00;97919.47;5116732;28;20670;-68
2021/01/07 02:53:39;;;;;;;12.60;9.33;;;;;;;1.83;100.00;97910.19;5117155;28;20222;-67
2021/01/07 02:56:06;;;;;;;11.10;8.27;;;;;;;1.85;100.00;97913.56;5117102;28;20206;-66
2021/01/07 02:58:32;;;;;;;11.53;8.03;;;;;;;1.92;100.00;97915.06;5116661;28;20696;-66
2021/01/07 03:00:58;;;;;;;11.97;8.87;;;;;;;1.91;100.00;97902.91;5114487;28;20217;-69
2021/01/07 03:03:24;;;;;;;13.10;9.67;;;;;;;1.80;100.00;97906.84;5114404;28;20210;-68
2021/01/07 03:05:51;;;;;;;12.33;8.90;;;;;;;1.83;100.00;97915.41;5114158;28;20215;-67
2021/01/07 03:08:17;;;;;;;10.53;8.00;;;;;;;1.86;100.00;97910.09;5113636;28;20233;-67
2021/01/07 03:10:42;;;;;;;11.83;8.00;;;;;;;1.82;100.00;97913.72;5112206;28;20301;-66
2021/01/07 03:13:09;;;;;;;11.40;8.60;;;;;;;1.78;100.00;97909.50;5113654;28;20580;-66
2021/01/07 03:15:35;;;;;;;10.93;8.30;;;;;;;1.72;100.00;97907.13;5112926;28;20217;-67
2021/01/07 03:18:01;;;;;;;11.53;8.73;;;;;;;1.76;100.00;97908.72;5113602;28;20206;-70
2021/01/07 03:20:27;;;;;;;11.27;8.73;;;;;;;1.78;100.00;97909.50;5113917;28;20221;-72
2021/01/07 03:22:53;;;;;;;11.47;8.83;;;;;;;1.79;100.00;97908.59;5113684;28;20212;-68
2021/01/07 03:25:20;;;;;;;13.43;8.90;;;;;;;1.88;100.00;97907.41;5113385;28;20216;-70
2021/01/07 03:27:46;;;;;;;12.07;8.73;;;;;;;1.87;100.00;97901.38;5113439;28;20249;-67
2021/01/07 03:30:14;;;;;;;12.20;9.27;;;;;;;1.82;100.00;97903.28;5113653;28;20212;-68
2021/01/07 03:32:40;;;;;;;12.03;9.10;;;;;;;1.80;100.00;97907.72;5113745;28;20228;-66
2021/01/07 03:35:10;;;;;;;11.93;8.60;;;;;;;1.86;100.00;97904.88;5112203;28;20580;-67
2021/01/07 03:37:36;;;;;;;12.03;8.80;;;;;;;1.86;100.00;97910.09;5113662;28;20579;-68
2021/01/07 03:40:02;;;;;;;11.67;8.63;;;;;;;1.82;100.00;97905.03;5113520;28;20232;-68
2021/01/07 03:42:28;;;;;;;12.47;8.10;;;;;;;1.83;100.00;97901.56;5113313;28;20768;-68
2021/01/07 03:44:54;;;;;;;10.57;8.60;;;;;;;1.76;100.00;97898.31;5113569;28;20210;-69
2021/01/07 03:47:21;;;;;;;10.80;7.97;;;;;;;1.78;100.00;97896.50;5113450;28;20266;-69
2021/01/07 03:49:47;;;;;;;11.00;8.43;;;;;;;1.75;100.00;97894.00;5113560;28;20651;-70
2021/01/07 03:52:13;;;;;;;11.93;8.47;;;;;;;1.68;100.00;97896.91;5113459;28;20220;-68
2021/01/07 03:54:39;;;;;;;11.73;8.53;;;;;;;1.74;100.00;97886.25;5113578;28;20674;-68
2021/01/07 03:57:06;;;;;;;11.13;7.40;;;;;;;1.72;100.00;97888.91;5113135;28;20209;-67
2021/01/07 03:59:32;;;;;;;10.33;7.30;;;;;;;1.70;100.00;97882.91;5113444;28;20230;-68
2021/01/07 04:01:58;;;;;;;9.37;7.57;;;;;;;1.71;100.00;97879.41;5111653;28;20209;-68
2021/01/07 04:04:25;;;;;;;10.60;7.43;;;;;;;1.73;100.00;97888.00;5113404;28;20264;-68
2021/01/07 04:06:50;;;;;;;9.73;6.97;;;;;;;1.70;100.00;97882.91;5113333;28;20237;-68
2021/01/07 04:09:16;;;;;;;9.03;7.30;;;;;;;1.74;100.00;97887.13;5113414;28;20612;-68
2021/01/07 04:11:42;;;;;;;9.87;7.10;;;;;;;1.69;100.00;97891.66;5113042;28;20288;-68
2021/01/07 04:14:08;;;;;;;10.87;7.87;;;;;;;1.78;100.00;97896.50;5113251;28;20207;-69
2021/01/07 04:16:34;;;;;;;9.67;7.13;;;;;;;1.77;100.00;97884.38;5113277;28;20248;-68
2021/01/07 04:19:00;;;;;;;8.90;6.83;;;;;;;1.76;100.00;97885.28;5112981;28;20214;-69
2021/01/07 04:21:27;;;;;;;9.23;6.90;;;;;;;1.76;100.00;97887.91;5113297;28;20297;-68
2021/01/07 04:23:53;;;;;;;9.93;7.40;;;;;;;1.74;100.00;97889.72;5113028;28;20263;-68
2021/01/07 04:26:19;;;;;;;11.07;8.33;;;;;;;1.76;100.00;97887.91;5113149;28;20214;-67
2021/01/07 04:28:45;;;;;;;10.93;8.40;;;;;;;1.71;100.00;97883.78;5115211;28;20242;-66
2021/01/07 04:31:11;;;;;;;11.00;8.10;;;;;;;1.76;100.00;97876.59;5116841;28;20210;-66
2021/01/07 04:33:37;;;;;;;12.30;8.50;;;;;;;1.76;100.00;97882.69;5116813;28;20210;-68
2021/01/07 04:36:04;;;;;;;12.73;8.97;;;;;;;1.76;100.00;97889.63;5116518;28;20202;-66
2021/01/07 04:38:31;;;;;;;12.77;8.73;;;;;;;1.77;100.00;97889.59;5116825;28;20212;-68
2021/01/07 04:40:57;;;;;;;11.10;8.40;;;;;;;1.77;100.00;97888.75;5116646;28;20206;-69
2021/01/07 04:43:24;;;;;;;11.20;8.17;;;;;;;1.82;100.00;97892.88;5116383;28;20297;-68
2021/01/07 04:45:50;;;;;;;11.40;8.50;;;;;;;1.83;100.00;97888.53;5116656;28;20206;-67
2021/01/07 04:48:17;;;;;;;13.70;9.03;;;;;;;1.82;100.00;97892.88;5116193;28;20238;-66
2021/01/07 04:50:43;;;;;;;11.93;8.57;;;;;;;1.83;100.00;97886.75;5116720;28;20214;-66
2021/01/07 04:53:10;;;;;;;11.63;8.80;;;;;;;1.89;100.00;97888.28;5114744;28;20220;-67
2021/01/07 04:55:36;;;;;;;9.53;7.40;;;;;;;1.84;100.00;97896.25;5116536;28;20210;-68
2021/01/07 04:58:03;;;;;;;11.80;8.30;;;;;;;1.75;100.00;97891.41;5116358;28;20608;-68
2021/01/07 05:00:30;;;;;;;10.33;7.77;;;;;;;1.75;100.00;97880.13;5116317;28;20240;-68
2021/01/07 05:02:57;;;;;;;11.10;8.10;;;;;;;1.78;100.00;97887.84;5115931;28;20239;-67
2021/01/07 05:05:23;;;;;;;10.07;7.87;;;;;;;1.74;100.00;97889.72;5116086;28;20224;-68
2021/01/07 05:07:49;;;;;;;10.37;7.30;;;;;;;1.78;100.00;97888.66;5115793;28;20746;-68
2021/01/07 05:10:15;;;;;;;9.53;7.43;;;;;;;1.75;100.00;97891.41;5116122;28;20202;-68
2021/01/07 05:12:42;;;;;;;9.03;7.00;;;;;;;1.77;100.00;97889.59;5116129;28;20210;-67
2021/01/07 05:15:09;;;;;;;8.83;6.63;;;;;;;1.77;100.00;97889.59;5116031;28;20210;-66
2021/01/07 05:17:36;;;;;;;8.57;6.63;;;;;;;1.78;100.00;97886.06;5115777;28;20213;-69
2021/01/07 05:20:02;;;;;;;8.60;6.47;;;;;;;1.76;100.00;97882.69;5114131;28;20217;-69
2021/01/07 05:22:35;;;;;;;9.13;6.60;;;;;;;1.75;100.00;97886.19;5115783;28;20210;-69
2021/01/07 05:25:01;;;;;;;8.13;6.20;;;;;;;1.76;100.00;97885.28;5115688;28;20214;-68
2021/01/07 05:27:27;;;;;;;7.67;6.27;;;;;;;1.74;100.00;97879.31;5115723;28;20233;-69
2021/01/07 05:29:58;;;;;;;6.83;5.43;;;;;;;1.75;100.00;97888.81;5115771;28;20231;-68
2021/01/07 05:32:34;;;;;;;6.07;5.30;;;;;;;1.71;100.00;97874.19;5115407;28;20221;-68
2021/01/07 05:35:00;;;;;;;8.17;6.10;;;;;;;1.69;100.00;97886.44;5115573;28;20709;-69
2021/01/07 05:37:26;;;;;;;9.07;6.97;;;;;;;1.60;100.00;97884.16;5115865;28;20298;-68
2021/01/07 05:39:52;;;;;;;8.20;6.70;;;;;;;1.65;100.00;97884.84;5114504;28;20221;-67
2021/01/07 05:42:18;;;;;;;8.93;6.60;;;;;;;1.67;100.00;97888.22;5115783;28;20210;-68
2021/01/07 05:44:45;;;;;;;7.87;5.73;;;;;;;1.65;100.00;97884.84;5115590;28;20213;-69
2021/01/07 05:47:23;;;;;;;8.10;6.60;;;;;;;1.64;100.00;97883.16;5114125;28;20647;-68
2021/01/07 05:49:49;;;;;;;7.37;6.00;;;;;;;1.64;100.00;97880.53;5115150;28;20206;-68
2021/01/07 05:52:15;;;;;;;8.33;6.30;;;;;;;1.70;100.00;97885.53;5115445;28;20240;-67
2021/01/07 05:54:42;;;;;;;10.33;6.60;;;;;;;1.65;100.00;97878.81;5115091;28;20613;-70
2021/01/07 05:57:11;;;;;;;8.33;6.27;;;;;;;1.69;100.00;97881.22;5115023;28;20221;-73
2021/01/07 05:59:38;;;;;;;7.37;5.63;;;;;;;1.71;100.00;97882.00;5115373;28;20260;-70
2021/01/07 06:02:05;;;;;;;7.70;6.10;;;;;;;1.69;100.00;97881.22;5115280;28;20622;-69
2021/01/07 06:04:34;;;;;;;7.10;5.63;;;;;;;1.73;100.00;97882.78;5115236;28;20206;-70
2021/01/07 06:07:00;;;;;;;7.10;5.50;;;;;;;1.77;100.00;97884.38;5115185;28;20307;-70
2021/01/07 06:09:29;;;;;;;6.50;5.63;;;;;;;1.77;100.00;97879.16;5114941;27;20577;-70
2021/01/07 06:11:58;;;;;;;7.03;5.43;;;;;;;1.75;100.00;97875.78;5113032;28;20216;-70
2021/01/07 06:14:24;;;;;;;7.47;5.30;;;;;;;1.77;100.00;97881.78;5114611;28;20257;-70
2021/01/07 06:16:52;;;;;;;6.50;5.40;;;;;;;1.72;100.00;97875.88;5114885;28;20206;-70
2021/01/07 06:19:33;;;;;;;6.73;5.40;;;;;;;1.72;100.00;97883.69;5114942;28;20209;-70
2021/01/07 06:22:00;;;;;;;7.73;5.17;;;;;;;1.68;100.00;97879.53;5114911;28;20217;-70
2021/01/07 06:24:26;;;;;;;5.57;4.97;;;;;;;1.68;100.00;97882.13;5114849;28;20625;-70
2021/01/07 06:26:52;;;;;;;7.20;5.60;;;;;;;1.78;100.00;97891.28;5114429;28;20215;-70
2021/01/07 06:29:18;;;;;;;6.47;4.90;;;;;;;1.76;100.00;97885.28;5114801;28;20205;-70
2021/01/07 06:31:54;;;;;;;6.17;4.40;;;;;;;1.78;100.00;97880.03;5114699;28;20250;-70
2021/01/07 06:34:38;;;;;;;6.43;5.10;;;;;;;1.75;100.00;97886.19;5114671;28;20222;-70
2021/01/07 06:37:05;;;;;;;5.90;4.80;;;;;;;1.75;100.00;97881.00;5112555;28;20270;-66
2021/01/07 06:39:31;;;;;;;10.10;5.43;;;;;;;1.77;100.00;97880.94;5114554;28;20206;-66
2021/01/07 06:41:58;;;;;;;7.07;5.63;;;;;;;1.75;100.00;97883.59;5114395;28;20206;-68
2021/01/07 06:44:25;;;;;;;7.30;5.47;;;;;;;1.84;100.00;97885.84;5114361;28;20221;-68
2021/01/07 06:46:51;;;;;;;6.87;5.10;;;;;;;1.77;100.00;97888.75;5114221;28;20206;-66
2021/01/07 06:49:22;;;;;;;7.73;5.70;;;;;;;1.75;100.00;97883.59;5114355;28;20213;-66
2021/01/07 06:51:51;;;;;;;6.53;5.50;;;;;;;1.83;100.00;97894.56;5114171;28;20210;-66
2021/01/07 06:54:18;;;;;;;6.33;5.20;;;;;;;1.85;100.00;97892.72;5113908;28;20218;-66
2021/01/07 06:56:44;;;;;;;7.17;5.57;;;;;;;1.86;100.00;97904.88;5113838;28;20218;-66
2021/01/07 06:59:13;;;;;;;7.33;5.80;;;;;;;1.81;100.00;97906.81;5113855;28;20283;-66
2021/01/07 07:01:46;;;;;;;6.33;5.40;;;;;;;1.89;100.00;97915.16;5114253;28;20210;-68
2021/01/07 07:04:24;;;;;;;6.10;4.97;;;;;;;1.89;100.00;97904.75;5112331;28;20214;-68
2021/01/07 07:06:57;;;;;;;7.10;5.40;;;;;;;1.85;100.00;97902.31;5113539;28;20216;-69
2021/01/07 07:09:25;;;;;;;7.10;5.43;;;;;;;1.88;100.00;97900.44;5113661;28;20261;-69
2021/01/07 07:11:52;;;;;;;7.40;5.87;;;;;;;1.87;100.00;97909.19;5113844;28;20241;-69
2021/01/07 07:14:20;;;;;;;7.23;5.57;;;;;;;1.93;100.00;97905.47;5114019;28;20551;-69
2021/01/07 07:16:47;;;;;;;8.90;6.20;;;;;;;1.98;100.00;97904.41;5113787;28;20209;-69
2021/01/07 07:19:23;;;;;;;7.50;5.37;;;;;;;2.00;100.00;97913.00;5113581;28;20209;-68
2021/01/07 07:22:00;;;;;;;7.97;6.00;;;;;;;2.01;100.00;97914.69;5113432;28;20674;-69
2021/01/07 07:24:35;;;;;;;7.67;6.07;;;;;;;2.06;100.00;97914.50;5113595;28;20297;-69
2021/01/07 07:27:03;;;;;;;7.77;5.93;;;;;;;2.08;100.00;97910.94;5113279;28;20674;-68
2021/01/07 07:29:34;;;;;;;7.43;5.67;;;;;;;2.09;100.00;97917.84;5111965;28;20584;-68
2021/01/07 07:32:01;;;;;;;7.97;5.90;;;;;;;2.06;100.00;97915.38;5113401;28;20206;-69
2021/01/07 07:34:32;;;;;;;8.40;6.03;;;;;;;2.06;100.00;97919.72;5113302;28;20213;-69
2021/01/07 07:36:58;;;;;;;7.60;6.13;;;;;;;2.07;100.00;97914.47;5113425;28;20210;-69
2021/01/07 07:39:27;;;;;;;8.10;6.20;;;;;;;2.05;100.00;97913.69;5113619;28;20217;-69
2021/01/07 07:42:08;;;;;;;7.40;5.60;;;;;;;2.08;100.00;97920.53;5113646;28;20213;-69
2021/01/07 07:44:34;;;;;;;8.30;6.37;;;;;;;2.09;100.00;97923.06;5113423;28;20664;-69
2021/01/07 07:47:01;;;;;;;8.50;6.53;;;;;;;2.07;100.00;97913.59;5113544;28;20212;-69
2021/01/07 07:49:27;;;;;;;8.83;6.17;;;;;;;2.03;100.00;97918.09;5113644;28;20209;-69
2021/01/07 07:51:53;;;;;;;7.10;5.63;;;;;;;2.06;100.00;97920.59;5113466;28;20213;-68
2021/01/07 07:54:19;;;;;;;7.80;5.90;;;;;;;2.10;100.00;97924.78;5113366;28;20206;-69
2021/01/07 07:56:45;;;;;;;7.87;6.13;;;;;;;2.11;100.00;97920.41;5111597;28;20217;-69
2021/01/07 07:59:12;;;;;;;8.93;6.23;;;;;;;2.12;100.00;97928.16;5112999;28;20275;-69
2021/01/07 08:01:43;;;;;;;8.67;6.33;;;;;;;2.12;100.00;97928.16;5113530;28;20205;-69
2021/01/07 08:04:11;;;;;;;8.57;6.27;;;;;;;2.16;100.00;97929.75;5117400;28;20213;-68
2021/01/07 08:06:37;;;;;;;9.47;6.27;;;;;;;2.16;100.00;97929.75;5117334;28;20209;-68
2021/01/07 08:09:05;;;;;;;8.03;6.20;;;;;;;2.17;100.00;97930.59;5116997;28;20694;-68
2021/01/07 08:11:33;;;;;;;8.43;6.07;;;;;;;2.19;100.00;97934.84;5117321;28;20212;-68
2021/01/07 08:13:59;;;;;;;8.80;7.03;;;;;;;2.18;100.00;97933.13;5117467;28;20640;-67
2021/01/07 08:16:28;;;;;;;8.80;6.43;;;;;;;2.18;100.00;97933.13;5117216;27;20219;-68
2021/01/07 08:18:54;;;;;;;10.23;6.87;;;;;;;2.17;100.00;97931.44;5117332;28;20217;-67
2021/01/07 08:21:20;;;;;;;10.47;6.90;;;;;;;2.15;100.00;97938.47;5115411;28;20644;-68
2021/01/07 08:23:46;;;;;;;11.93;7.90;;;;;;;2.15;100.00;97938.47;5115739;28;20688;-69
2021/01/07 08:26:25;;;;;;;10.87;7.47;;;;;;;2.21;100.00;97940.81;5114580;28;20235;-66
2021/01/07 08:28:51;;;;;;;9.43;7.00;;;;;;;2.27;100.00;97947.56;5117152;28;20594;-66
2021/01/07 08:31:22;;;;;;;11.97;7.60;;;;;;;2.32;100.00;97951.69;5117325;28;20202;-66
2021/01/07 08:33:50;;;;;;;12.03;7.77;;;;;;;2.33;100.00;97949.94;5116702;28;20217;-65
2021/01/07 08:36:20;;;;;;;9.60;7.37;;;;;;;2.34;100.00;97952.47;5113340;28;20202;-68
2021/01/07 08:38:49;;;;;;;11.27;8.17;;;;;;;2.33;100.00;97948.16;5115420;28;20209;-68
2021/01/07 08:41:17;;;;;;;9.90;7.40;;;;;;;2.30;100.00;97958.72;5114524;28;20217;-68
2021/01/07 08:43:46;;;;;;;10.07;7.37;;;;;;;2.28;100.00;97957.91;5114245;28;20220;-66
2021/01/07 08:46:13;;;;;;;10.20;7.27;;;;;;;2.33;100.00;97953.38;5116450;28;20408;-66
2021/01/07 08:48:39;;;;;;;12.57;8.20;;;;;;;2.34;100.00;97959.47;5114814;28;20240;-67
2021/01/07 08:51:19;;;;;;;11.20;8.07;;;;;;;2.29;100.00;97958.78;5116321;28;20694;-68
2021/01/07 08:53:50;;;;;;;10.63;7.73;;;;;;;2.33;100.00;97956.00;5116205;28;20221;-68
2021/01/07 08:56:29;;;;;;;11.13;8.13;;;;;;;2.34;100.00;97957.69;5116608;28;20212;-67
2021/01/07 08:59:20;;;;;;;10.77;8.03;;;;;;;2.34;100.00;97960.28;5116716;28;20603;-68
2021/01/07 09:01:47;;;;;;;9.73;7.43;;;;;;;2.37;100.00;97949.75;5116146;28;20216;-68
2021/01/07 09:04:31;;;;;;;10.93;8.20;;;;;;;2.43;100.00;97952.13;5116099;28;20222;-68
2021/01/07 09:07:00;;;;;;;10.37;8.13;;;;;;;2.41;100.00;97961.78;5116386;28;20588;-69
2021/01/07 09:09:27;;;;;;;11.27;8.43;;;;;;;2.42;100.00;97950.44;5116210;28;20210;-68
2021/01/07 09:12:11;;;;;;;11.77;8.20;;;;;;;2.49;100.00;97954.47;5116414;28;20217;-68
2021/01/07 09:14:50;;;;;;;10.90;8.40;;;;;;;2.53;100.00;97948.25;5113162;28;20206;-68
2021/01/07 09:17:18;;;;;;;12.10;8.93;;;;;;;2.54;100.00;97949.94;5116048;28;20213;-68
2021/01/07 09:19:45;;;;;;;12.23;9.07;;;;;;;2.59;100.00;97945.38;5116099;28;20210;-69
2021/01/07 09:22:20;;;;;;;13.40;9.33;;;;;;;2.62;100.00;97953.06;5116241;28;20206;-69
2021/01/07 09:24:47;;;;;;;14.20;9.57;;;;;;;2.65;100.00;97950.34;5116092;28;20213;-69
2021/01/07 09:27:14;;;;;;;10.73;8.20;;;;;;;2.64;100.00;97953.84;5115896;28;20209;-69
2021/01/07 09:29:41;;;;;;;12.67;9.30;;;;;;;2.74;100.00;97960.41;5115505;28;20252;-68
2021/01/07 09:32:08;;;;;;;11.80;8.80;;;;;;;2.81;100.00;97956.63;5115726;28;20214;-69
2021/01/07 09:34:35;;;;;;;12.50;8.93;;;;;;;2.87;100.00;97958.16;5115637;28;20768;-69
2021/01/07 09:37:05;;;;;;;13.07;9.40;;;;;;;2.84;100.00;97955.66;5115795;28;20301;-69
2021/01/07 09:39:32;;;;;;;12.93;9.20;;;;;;;2.81;100.00;97954.00;5114070;28;20583;-69
2021/01/07 09:41:58;;;;;;;11.27;8.27;;;;;;;2.84;100.00;97953.91;5115932;28;20233;-69
2021/01/07 09:44:24;;;;;;;14.40;9.97;;;;;;;2.79;100.00;97954.97;5115650;28;20237;-69
2021/01/07 09:46:52;;;;;;;12.77;9.20;;;;;;;2.83;100.00;97960.03;5115268;28;20252;-69
2021/01/07 09:49:18;;;;;;;13.20;9.03;;;;;;;2.81;100.00;97954.00;5115204;28;20709;-69
2021/01/07 09:51:44;;;;;;;12.90;9.10;;;;;;;2.87;100.00;97950.31;5115270;28;20256;-69
2021/01/07 09:54:10;;;;;;;13.47;9.33;;;;;;;2.83;100.00;97952.22;5115247;28;20210;-69
2021/01/07 09:56:37;;;;;;;12.33;9.43;;;;;;;2.84;100.00;97956.50;5115458;28;20213;-70
2021/01/07 09:59:03;;;;;;;13.60;9.53;;;;;;;2.91;100.00;97957.09;5115373;28;20599;-70
2021/01/07 10:01:29;;;;;;;14.60;9.67;;;;;;;2.94;100.00;97955.19;5114895;28;20216;-70
2021/01/07 10:03:55;;;;;;;13.03;9.40;;;;;;;2.95;100.00;97954.28;5115567;27;20214;-70
2021/01/07 10:06:21;;;;;;;15.63;10.43;;;;;;;3.03;100.00;97946.13;5113641;28;20221;-68
2021/01/07 10:08:47;;;;;;;13.50;9.40;;;;;;;3.03;100.00;97957.44;5115284;28;20320;-68
2021/01/07 10:11:13;;;;;;;13.13;9.60;;;;;;;3.11;100.00;97957.94;5115262;28;20206;-68
2021/01/07 10:13:40;;;;;;;13.50;9.83;;;;;;;3.10;100.00;97958.00;5115086;28;20209;-70
2021/01/07 10:16:09;;;;;;;14.93;10.10;;;;;;;3.11;100.00;97960.56;5114944;28;20202;-68
2021/01/07 10:18:35;;;;;;;13.63;8.53;;;;;;;3.13;100.00;97953.50;5114641;28;20267;-67
2021/01/07 10:21:04;;;;;;;13.17;9.33;;;;;;;3.18;100.00;97948.94;5114740;28;20210;-67
2021/01/07 10:23:30;;;;;;;12.77;9.67;;;;;;;3.21;100.00;97956.66;5114763;28;20236;-69
2021/01/07 10:25:57;;;;;;;14.13;9.73;;;;;;;3.27;100.00;97950.31;5114124;27;20209;-68
2021/01/07 10:28:26;;;;;;;13.07;9.00;;;;;;;3.31;100.00;97957.94;5114871;28;20744;-68
2021/01/07 10:30:53;;;;;;;14.40;10.37;;;;;;;3.30;100.00;97940.56;5112972;28;20213;-69
2021/01/07 10:33:20;;;;;;;12.73;9.20;;;;;;;3.35;100.00;97946.44;5114453;28;20663;-68
2021/01/07 10:35:46;;;;;;;13.40;9.60;;;;;;;3.36;99.86;97939.47;5114827;28;20258;-68
2021/01/07 10:38:21;;;;;;;14.93;9.93;;;;;;;3.38;99.57;97940.25;5114326;28;20215;-69
2021/01/07 10:40:47;;;;;;;12.67;9.07;;;;;;;3.36;99.59;97935.09;5114266;28;20254;-69
2021/01/07 10:43:13;;;;;;;11.70;9.10;;;;;;;3.37;98.77;97938.56;5114491;28;20266;-69
2021/01/07 10:45:40;;;;;;;15.03;10.43;;;;;;;3.36;98.79;97937.69;5114402;28;20627;-69
2021/01/07 10:48:14;;;;;;;11.60;8.70;;;;;;;3.44;98.52;97934.75;5113892;28;20722;-69
2021/01/07 10:50:41;;;;;;;12.57;8.67;;;;;;;3.50;98.47;97932.72;5113882;28;20210;-68
2021/01/07 10:53:20;;;;;;;12.73;8.57;;;;;;;3.54;97.80;97928.22;5113959;28;20206;-69
2021/01/07 10:55:53;;;;;;;11.67;7.97;;;;;;;3.56;97.41;97932.44;5113990;28;20698;-69
2021/01/07 10:58:32;;;;;;;8.97;7.03;;;;;;;3.49;94.91;97923.16;5112380;28;20237;-69
2021/01/07 11:01:14;;;;;;;9.53;7.40;;;;;;;3.37;93.11;97920.28;5114127;28;20209;-70
2021/01/07 11:04:01;;;;;;;10.07;7.30;;;;;;;3.38;92.66;97915.00;5113900;28;20288;-69
2021/01/07 11:06:31;;;;;;;9.83;6.80;;;;;;;3.43;93.15;97915.59;5110795;28;20213;-68
2021/01/07 11:09:02;;;;;;;11.27;7.90;;;;;;;3.42;94.07;97908.69;5113909;28;20229;-68
2021/01/07 11:11:35;;;;;;;11.57;7.70;;;;;;;3.52;93.86;97910.00;5113925;28;20259;-69
2021/01/07 11:14:03;;;;;;;10.87;7.40;;;;;;;3.57;94.29;97908.03;5113545;28;20259;-69
2021/01/07 11:16:37;;;;;;;8.60;6.63;;;;;;;3.55;94.67;97904.59;5113670;28;20730;-70
2021/01/07 11:19:08;;;;;;;9.30;7.00;;;;;;;3.60;94.19;97892.19;5113569;28;20407;-69
2021/01/07 11:21:39;;;;;;;9.90;6.73;;;;;;;3.64;92.91;97892.91;5113641;28;20206;-68
2021/01/07 11:24:06;;;;;;;8.63;6.73;;;;;;;3.71;92.50;97892.56;5113807;28;20214;-69
2021/01/07 11:26:32;;;;;;;8.83;6.63;;;;;;;3.76;92.23;97887.09;5116097;28;20213;-69
2021/01/07 11:28:59;;;;;;;9.80;7.03;;;;;;;3.79;91.06;97881.75;5113872;28;20718;-69
2021/01/07 11:31:25;;;;;;;9.13;6.30;;;;;;;3.81;91.49;97882.53;5114177;28;20232;-69